West Port Arthur, Texas
Current Conditions -  °F | °C
As of 3:53 PM on Monday 20 Oct 2014 (Local Time) from KBPT Reporting Station
Clear Clear  
Wind Chill: 81°   Ceiling: Unl
Heat Index: 81°   Visibility: 10mi
Dew Point: 57°   Wind: 5mph
Humidity: 44%   Direction: 20°NNE
Pressure: 29.99"   Gusts: NA
Location:  29.7569°N, 94.1898°W
Report Text: KBPT 202053Z 02004KT 10SM CLR 27/14 A2999 RMK AO2 SLP154 T02720139 56018
Loading
Personal Weather Stations






























Interactive Weather Map
Tropical Storm Tracking
New forecast layout! Learn more

10-Day Weather Forecast

Advertisements
Track Severe Weather on mobile